sensor_id;sensor_type;location;lat;lon;timestamp;temperature;humidity
37050;DHT22;22958;51.232;6.826;2023-04-03T00:01:02;2.10;99.90
37050;DHT22;22958;51.232;6.826;2023-04-03T00:03:28;1.90;99.90
37050;DHT22;22958;51.232;6.826;2023-04-03T00:05:54;1.80;99.90
37050;DHT22;22958;51.232;6.826;2023-04-03T00:08:20;1.70;99.90
37050;DHT22;22958;51.232;6.826;2023-04-03T00:10:46;1.60;99.90
37050;DHT22;22958;51.232;6.826;2023-04-03T00:13:12;1.60;99.90
37050;DHT22;22958;51.232;6.826;2023-04-03T00:15:38;1.60;99.90
37050;DHT22;22958;51.232;6.826;2023-04-03T00:18:04;1.60;99.90
37050;DHT22;22958;51.232;6.826;2023-04-03T00:20:30;1.60;99.90
37050;DHT22;22958;51.232;6.826;2023-04-03T00:22:56;1.60;99.90
37050;DHT22;22958;51.232;6.826;2023-04-03T00:25:21;1.70;99.90
37050;DHT22;22958;51.232;6.826;2023-04-03T00:27:47;1.70;99.90
37050;DHT22;22958;51.232;6.826;2023-04-03T00:30:15;1.50;99.90
37050;DHT22;22958;51.232;6.826;2023-04-03T00:32:41;1.40;99.90
37050;DHT22;22958;51.232;6.826;2023-04-03T00:35:07;1.30;99.90
37050;DHT22;22958;51.232;6.826;2023-04-03T00:37:33;1.30;99.90
37050;DHT22;22958;51.232;6.826;2023-04-03T00:39:59;1.30;99.90
37050;DHT22;22958;51.232;6.826;2023-04-03T00:42:25;1.30;99.90
37050;DHT22;22958;51.232;6.826;2023-04-03T00:47:22;1.40;99.90
37050;DHT22;22958;51.232;6.826;2023-04-03T00:49:49;1.30;99.90
37050;DHT22;22958;51.232;6.826;2023-04-03T00:52:17;1.30;99.90
37050;DHT22;22958;51.232;6.826;2023-04-03T00:54:45;1.40;99.90
37050;DHT22;22958;51.232;6.826;2023-04-03T00:57:14;1.40;99.90
37050;DHT22;22958;51.232;6.826;2023-04-03T00:59:44;1.40;99.90
37050;DHT22;22958;51.232;6.826;2023-04-03T01:02:11;1.30;99.90
37050;DHT22;22958;51.232;6.826;2023-04-03T01:04:39;1.30;99.90
37050;DHT22;22958;51.232;6.826;2023-04-03T01:07:41;1.20;99.90
37050;DHT22;22958;51.232;6.826;2023-04-03T01:10:06;1.20;99.90
37050;DHT22;22958;51.232;6.826;2023-04-03T01:12:38;1.20;99.90
37050;DHT22;22958;51.232;6.826;2023-04-03T01:15:10;1.20;99.90
37050;DHT22;22958;51.232;6.826;2023-04-03T01:17:40;1.30;99.90
37050;DHT22;22958;51.232;6.826;2023-04-03T01:23:21;1.30;99.90
37050;DHT22;22958;51.232;6.826;2023-04-03T01:25:48;1.30;99.90
37050;DHT22;22958;51.232;6.826;2023-04-03T01:28:18;1.30;99.90
37050;DHT22;22958;51.232;6.826;2023-04-03T01:30:56;1.20;99.90
37050;DHT22;22958;51.232;6.826;2023-04-03T01:33:24;1.30;99.90
37050;DHT22;22958;51.232;6.826;2023-04-03T01:35:49;1.40;99.90
37050;DHT22;22958;51.232;6.826;2023-04-03T01:38:15;1.40;99.90
37050;DHT22;22958;51.232;6.826;2023-04-03T01:40:41;1.50;99.90
37050;DHT22;22958;51.232;6.826;2023-04-03T01:43:06;1.50;99.90
37050;DHT22;22958;51.232;6.826;2023-04-03T01:45:32;1.50;99.90
37050;DHT22;22958;51.232;6.826;2023-04-03T01:47:57;1.50;99.90
37050;DHT22;22958;51.232;6.826;2023-04-03T01:50:23;1.80;99.90
37050;DHT22;22958;51.232;6.826;2023-04-03T01:52:48;1.90;99.90
37050;DHT22;22958;51.232;6.826;2023-04-03T01:55:14;2.10;99.90
37050;DHT22;22958;51.232;6.826;2023-04-03T01:57:40;2.20;99.90
37050;DHT22;22958;51.232;6.826;2023-04-03T02:00:06;2.20;99.90
37050;DHT22;22958;51.232;6.826;2023-04-03T02:02:33;2.30;99.90
37050;DHT22;22958;51.232;6.826;2023-04-03T02:04:58;2.50;99.90
37050;DHT22;22958;51.232;6.826;2023-04-03T02:07:24;2.50;99.90
37050;DHT22;22958;51.232;6.826;2023-04-03T02:09:49;2.60;99.90
37050;DHT22;22958;51.232;6.826;2023-04-03T02:12:15;2.60;99.90
37050;DHT22;22958;51.232;6.826;2023-04-03T02:14:41;2.50;99.90
37050;DHT22;22958;51.232;6.826;2023-04-03T02:17:06;2.60;99.90
37050;DHT22;22958;51.232;6.826;2023-04-03T02:19:34;2.50;99.90
37050;DHT22;22958;51.232;6.826;2023-04-03T02:22:01;2.50;99.90
37050;DHT22;22958;51.232;6.826;2023-04-03T02:24:26;2.50;99.90
37050;DHT22;22958;51.232;6.826;2023-04-03T02:26:52;2.50;99.90
37050;DHT22;22958;51.232;6.826;2023-04-03T02:29:18;2.60;99.90
37050;DHT22;22958;51.232;6.826;2023-04-03T02:31:43;2.60;99.90
37050;DHT22;22958;51.232;6.826;2023-04-03T02:34:09;2.60;99.90
37050;DHT22;22958;51.232;6.826;2023-04-03T02:36:34;2.60;99.90
37050;DHT22;22958;51.232;6.826;2023-04-03T02:39:00;2.60;99.90
37050;DHT22;22958;51.232;6.826;2023-04-03T02:41:25;2.70;99.90
37050;DHT22;22958;51.232;6.826;2023-04-03T02:43:58;2.70;99.90
37050;DHT22;22958;51.232;6.826;2023-04-03T02:46:24;2.70;99.90
37050;DHT22;22958;51.232;6.826;2023-04-03T02:48:50;2.70;99.90
37050;DHT22;22958;51.232;6.826;2023-04-03T02:51:15;2.70;99.90
37050;DHT22;22958;51.232;6.826;2023-04-03T02:53:41;2.60;99.90
37050;DHT22;22958;51.232;6.826;2023-04-03T02:56:06;2.70;99.90
37050;DHT22;22958;51.232;6.826;2023-04-03T02:58:32;2.60;99.90
37050;DHT22;22958;51.232;6.826;2023-04-03T03:00:57;2.50;99.90
37050;DHT22;22958;51.232;6.826;2023-04-03T03:03:23;2.50;99.90
37050;DHT22;22958;51.232;6.826;2023-04-03T03:05:48;2.50;99.90
37050;DHT22;22958;51.232;6.826;2023-04-03T03:08:14;2.50;99.90
37050;DHT22;22958;51.232;6.826;2023-04-03T03:10:40;2.50;99.90
37050;DHT22;22958;51.232;6.826;2023-04-03T03:13:05;2.50;99.90
37050;DHT22;22958;51.232;6.826;2023-04-03T03:15:31;2.50;99.90
37050;DHT22;22958;51.232;6.826;2023-04-03T03:17:56;2.50;99.90
37050;DHT22;22958;51.232;6.826;2023-04-03T03:20:22;2.40;99.90
37050;DHT22;22958;51.232;6.826;2023-04-03T03:22:47;2.40;99.90
37050;DHT22;22958;51.232;6.826;2023-04-03T03:25:13;2.30;99.90
37050;DHT22;22958;51.232;6.826;2023-04-03T03:27:38;2.30;99.90
37050;DHT22;22958;51.232;6.826;2023-04-03T03:30:04;2.30;99.90
37050;DHT22;22958;51.232;6.826;2023-04-03T03:32:30;2.30;99.90
37050;DHT22;22958;51.232;6.826;2023-04-03T03:34:56;2.30;99.90
37050;DHT22;22958;51.232;6.826;2023-04-03T03:37:21;2.20;99.90
37050;DHT22;22958;51.232;6.826;2023-04-03T03:39:47;2.30;99.90
37050;DHT22;22958;51.232;6.826;2023-04-03T03:42:12;2.30;99.90
37050;DHT22;22958;51.232;6.826;2023-04-03T03:44:38;2.20;99.90
37050;DHT22;22958;51.232;6.826;2023-04-03T03:47:03;2.20;99.90
37050;DHT22;22958;51.232;6.826;2023-04-03T03:49:31;2.20;99.90
37050;DHT22;22958;51.232;6.826;2023-04-03T03:51:56;2.10;99.90
37050;DHT22;22958;51.232;6.826;2023-04-03T03:54:22;2.10;99.90
37050;DHT22;22958;51.232;6.826;2023-04-03T03:56:47;2.20;99.90
37050;DHT22;22958;51.232;6.826;2023-04-03T03:59:13;2.20;99.90
37050;DHT22;22958;51.232;6.826;2023-04-03T04:01:38;2.10;99.90
37050;DHT22;22958;51.232;6.826;2023-04-03T04:04:05;2.10;99.90
37050;DHT22;22958;51.232;6.826;2023-04-03T04:06:30;2.10;99.90
37050;DHT22;22958;51.232;6.826;2023-04-03T04:08:56;2.10;99.90
37050;DHT22;22958;51.232;6.826;2023-04-03T04:11:21;2.10;99.90
37050;DHT22;22958;51.232;6.826;2023-04-03T04:13:47;2.00;99.90
37050;DHT22;22958;51.232;6.826;2023-04-03T04:16:12;2.00;99.90
37050;DHT22;22958;51.232;6.826;2023-04-03T04:18:38;2.00;99.90
37050;DHT22;22958;51.232;6.826;2023-04-03T04:21:03;2.00;99.90
37050;DHT22;22958;51.232;6.826;2023-04-03T04:23:29;2.00;99.90
37050;DHT22;22958;51.232;6.826;2023-04-03T04:25:54;2.00;99.90
37050;DHT22;22958;51.232;6.826;2023-04-03T04:28:20;2.10;99.90
37050;DHT22;22958;51.232;6.826;2023-04-03T04:30:45;2.00;99.90
37050;DHT22;22958;51.232;6.826;2023-04-03T04:33:11;2.00;99.90
37050;DHT22;22958;51.232;6.826;2023-04-03T04:35:37;2.00;99.90
37050;DHT22;22958;51.232;6.826;2023-04-03T04:38:02;2.00;99.90
37050;DHT22;22958;51.232;6.826;2023-04-03T04:40:28;2.00;99.90
37050;DHT22;22958;51.232;6.826;2023-04-03T04:42:54;1.90;99.90
37050;DHT22;22958;51.232;6.826;2023-04-03T04:45:19;1.90;99.90
37050;DHT22;22958;51.232;6.826;2023-04-03T04:47:45;1.90;99.90
37050;DHT22;22958;51.232;6.826;2023-04-03T04:50:12;1.90;99.90
37050;DHT22;22958;51.232;6.826;2023-04-03T04:52:38;1.90;99.90
37050;DHT22;22958;51.232;6.826;2023-04-03T04:55:04;1.90;99.90
37050;DHT22;22958;51.232;6.826;2023-04-03T04:57:29;1.90;99.90
37050;DHT22;22958;51.232;6.826;2023-04-03T04:59:55;1.90;99.90
37050;DHT22;22958;51.232;6.826;2023-04-03T05:02:20;1.90;99.90
37050;DHT22;22958;51.232;6.826;2023-04-03T05:04:46;1.90;99.90
37050;DHT22;22958;51.232;6.826;2023-04-03T05:07:11;1.90;99.90
37050;DHT22;22958;51.232;6.826;2023-04-03T05:09:37;1.90;99.90
37050;DHT22;22958;51.232;6.826;2023-04-03T05:12:03;1.90;99.90
37050;DHT22;22958;51.232;6.826;2023-04-03T05:14:29;1.80;99.90
37050;DHT22;22958;51.232;6.826;2023-04-03T05:16:55;1.80;99.90
37050;DHT22;22958;51.232;6.826;2023-04-03T05:19:21;1.80;99.90
37050;DHT22;22958;51.232;6.826;2023-04-03T05:21:47;1.80;99.90
37050;DHT22;22958;51.232;6.826;2023-04-03T05:24:13;1.80;99.90
37050;DHT22;22958;51.232;6.826;2023-04-03T05:26:39;1.80;99.90
37050;DHT22;22958;51.232;6.826;2023-04-03T05:29:04;1.80;99.90
37050;DHT22;22958;51.232;6.826;2023-04-03T05:31:30;1.80;99.90
37050;DHT22;22958;51.232;6.826;2023-04-03T05:33:56;1.80;99.90
37050;DHT22;22958;51.232;6.826;2023-04-03T05:36:22;1.80;99.90
37050;DHT22;22958;51.232;6.826;2023-04-03T05:38:47;1.90;99.90
37050;DHT22;22958;51.232;6.826;2023-04-03T05:41:14;1.90;99.90
37050;DHT22;22958;51.232;6.826;2023-04-03T05:43:40;1.90;99.90
37050;DHT22;22958;51.232;6.826;2023-04-03T05:46:13;2.00;99.90
37050;DHT22;22958;51.232;6.826;2023-04-03T05:48:39;2.10;99.90
37050;DHT22;22958;51.232;6.826;2023-04-03T05:51:06;2.10;99.90
37050;DHT22;22958;51.232;6.826;2023-04-03T05:53:35;2.20;99.90
37050;DHT22;22958;51.232;6.826;2023-04-03T05:56:03;2.20;99.90
37050;DHT22;22958;51.232;6.826;2023-04-03T05:58:28;2.20;99.90
37050;DHT22;22958;51.232;6.826;2023-04-03T06:00:54;2.20;99.90
37050;DHT22;22958;51.232;6.826;2023-04-03T06:03:19;2.30;99.90
37050;DHT22;22958;51.232;6.826;2023-04-03T06:05:45;2.40;99.90
37050;DHT22;22958;51.232;6.826;2023-04-03T06:08:11;2.40;99.90
37050;DHT22;22958;51.232;6.826;2023-04-03T06:10:38;2.50;99.90
37050;DHT22;22958;51.232;6.826;2023-04-03T06:13:04;2.50;99.90
37050;DHT22;22958;51.232;6.826;2023-04-03T06:15:29;2.60;99.90
37050;DHT22;22958;51.232;6.826;2023-04-03T06:17:55;2.70;99.90
37050;DHT22;22958;51.232;6.826;2023-04-03T06:20:21;2.70;99.90
37050;DHT22;22958;51.232;6.826;2023-04-03T06:22:47;2.80;99.90
37050;DHT22;22958;51.232;6.826;2023-04-03T06:25:13;2.80;99.90
37050;DHT22;22958;51.232;6.826;2023-04-03T06:27:39;2.90;99.90
37050;DHT22;22958;51.232;6.826;2023-04-03T06:30:06;3.00;99.90
37050;DHT22;22958;51.232;6.826;2023-04-03T06:32:32;3.00;99.90
37050;DHT22;22958;51.232;6.826;2023-04-03T06:34:57;3.00;99.90
37050;DHT22;22958;51.232;6.826;2023-04-03T06:37:23;3.10;99.90
37050;DHT22;22958;51.232;6.826;2023-04-03T06:39:51;3.20;99.90
37050;DHT22;22958;51.232;6.826;2023-04-03T06:42:17;3.30;99.90
37050;DHT22;22958;51.232;6.826;2023-04-03T06:44:43;3.40;99.90
37050;DHT22;22958;51.232;6.826;2023-04-03T06:47:15;3.40;99.90
37050;DHT22;22958;51.232;6.826;2023-04-03T06:49:41;3.50;99.90
37050;DHT22;22958;51.232;6.826;2023-04-03T06:52:07;3.50;99.90
37050;DHT22;22958;51.232;6.826;2023-04-03T06:54:33;3.60;99.90
37050;DHT22;22958;51.232;6.826;2023-04-03T06:56:59;3.70;99.90
37050;DHT22;22958;51.232;6.826;2023-04-03T06:59:25;3.70;99.90
37050;DHT22;22958;51.232;6.826;2023-04-03T07:01:51;3.80;99.90
37050;DHT22;22958;51.232;6.826;2023-04-03T07:04:17;3.90;99.90
37050;DHT22;22958;51.232;6.826;2023-04-03T07:06:43;3.90;99.90
37050;DHT22;22958;51.232;6.826;2023-04-03T07:09:09;4.00;99.90
37050;DHT22;22958;51.232;6.826;2023-04-03T07:11:36;4.10;99.90
37050;DHT22;22958;51.232;6.826;2023-04-03T07:14:02;4.10;99.90
37050;DHT22;22958;51.232;6.826;2023-04-03T07:16:28;3.90;99.90
37050;DHT22;22958;51.232;6.826;2023-04-03T07:18:56;4.00;99.90
37050;DHT22;22958;51.232;6.826;2023-04-03T07:21:21;4.00;99.90
37050;DHT22;22958;51.232;6.826;2023-04-03T07:23:47;4.00;99.90
37050;DHT22;22958;51.232;6.826;2023-04-03T07:26:12;4.00;99.90
37050;DHT22;22958;51.232;6.826;2023-04-03T07:28:39;4.20;99.90
37050;DHT22;22958;51.232;6.826;2023-04-03T07:31:08;4.20;99.90
37050;DHT22;22958;51.232;6.826;2023-04-03T07:33:37;4.30;99.90
37050;DHT22;22958;51.232;6.826;2023-04-03T07:36:03;4.40;99.90
37050;DHT22;22958;51.232;6.826;2023-04-03T07:38:29;4.40;99.90
37050;DHT22;22958;51.232;6.826;2023-04-03T07:40:54;4.50;99.90
37050;DHT22;22958;51.232;6.826;2023-04-03T07:43:21;4.60;99.90
37050;DHT22;22958;51.232;6.826;2023-04-03T07:45:48;4.70;99.90
37050;DHT22;22958;51.232;6.826;2023-04-03T07:48:23;4.90;99.90
37050;DHT22;22958;51.232;6.826;2023-04-03T07:50:50;5.00;99.90
37050;DHT22;22958;51.232;6.826;2023-04-03T07:53:17;5.10;99.90
37050;DHT22;22958;51.232;6.826;2023-04-03T07:55:42;5.20;99.90
37050;DHT22;22958;51.232;6.826;2023-04-03T07:58:13;5.40;99.90
37050;DHT22;22958;51.232;6.826;2023-04-03T08:00:40;5.40;99.90
37050;DHT22;22958;51.232;6.826;2023-04-03T08:03:06;5.50;99.90
37050;DHT22;22958;51.232;6.826;2023-04-03T08:05:37;5.60;99.90
37050;DHT22;22958;51.232;6.826;2023-04-03T08:08:02;5.60;99.90
37050;DHT22;22958;51.232;6.826;2023-04-03T08:10:30;5.50;99.90
37050;DHT22;22958;51.232;6.826;2023-04-03T08:12:55;5.60;99.90
37050;DHT22;22958;51.232;6.826;2023-04-03T08:15:21;5.70;99.90
37050;DHT22;22958;51.232;6.826;2023-04-03T08:17:46;5.90;99.90
37050;DHT22;22958;51.232;6.826;2023-04-03T08:20:12;5.80;99.90
37050;DHT22;22958;51.232;6.826;2023-04-03T08:22:37;5.90;99.90
37050;DHT22;22958;51.232;6.826;2023-04-03T08:25:03;6.00;99.90
37050;DHT22;22958;51.232;6.826;2023-04-03T08:27:29;6.00;99.90
37050;DHT22;22958;51.232;6.826;2023-04-03T08:29:55;6.10;99.90
37050;DHT22;22958;51.232;6.826;2023-04-03T08:32:22;6.20;99.90
37050;DHT22;22958;51.232;6.826;2023-04-03T08:34:48;6.30;99.90
37050;DHT22;22958;51.232;6.826;2023-04-03T08:37:13;6.40;99.90
37050;DHT22;22958;51.232;6.826;2023-04-03T08:39:41;6.50;99.90
37050;DHT22;22958;51.232;6.826;2023-04-03T08:45:26;6.40;99.90
37050;DHT22;22958;51.232;6.826;2023-04-03T08:48:09;6.50;99.90
37050;DHT22;22958;51.232;6.826;2023-04-03T08:50:45;6.60;99.90
37050;DHT22;22958;51.232;6.826;2023-04-03T08:53:15;6.70;99.90
37050;DHT22;22958;51.232;6.826;2023-04-03T08:55:50;6.70;99.90
37050;DHT22;22958;51.232;6.826;2023-04-03T08:58:24;6.90;99.90
37050;DHT22;22958;51.232;6.826;2023-04-03T09:01:00;6.90;99.90
37050;DHT22;22958;51.232;6.826;2023-04-03T09:03:33;6.80;98.40
37050;DHT22;22958;51.232;6.826;2023-04-03T09:14:33;7.10;97.40
37050;DHT22;22958;51.232;6.826;2023-04-03T09:17:41;7.00;96.90
37050;DHT22;22958;51.232;6.826;2023-04-03T09:20:20;7.10;96.40
37050;DHT22;22958;51.232;6.826;2023-04-03T09:22:46;7.00;96.40
37050;DHT22;22958;51.232;6.826;2023-04-03T09:27:38;7.30;96.50
37050;DHT22;22958;51.232;6.826;2023-04-03T09:30:05;7.40;96.00
37050;DHT22;22958;51.232;6.826;2023-04-03T09:32:34;7.40;96.10
37050;DHT22;22958;51.232;6.826;2023-04-03T09:35:27;7.40;95.70
37050;DHT22;22958;51.232;6.826;2023-04-03T09:38:16;7.50;95.70
37050;DHT22;22958;51.232;6.826;2023-04-03T09:40:44;7.50;95.10
37050;DHT22;22958;51.232;6.826;2023-04-03T09:45:43;7.60;95.40
37050;DHT22;22958;51.232;6.826;2023-04-03T09:50:52;7.70;95.10
37050;DHT22;22958;51.232;6.826;2023-04-03T09:53:35;7.70;94.40
37050;DHT22;22958;51.232;6.826;2023-04-03T09:58:46;7.50;95.20
37050;DHT22;22958;51.232;6.826;2023-04-03T10:04:16;7.30;96.10
37050;DHT22;22958;51.232;6.826;2023-04-03T10:06:53;7.50;96.00
37050;DHT22;22958;51.232;6.826;2023-04-03T10:09:30;7.60;95.80
37050;DHT22;22958;51.232;6.826;2023-04-03T10:11:58;7.70;96.50
37050;DHT22;22958;51.232;6.826;2023-04-03T10:14:24;7.90;95.90
37050;DHT22;22958;51.232;6.826;2023-04-03T10:19:59;8.10;96.40
37050;DHT22;22958;51.232;6.826;2023-04-03T10:25:40;8.20;96.00
37050;DHT22;22958;51.232;6.826;2023-04-03T10:30:39;8.50;96.70
37050;DHT22;22958;51.232;6.826;2023-04-03T10:33:13;8.20;97.00
37050;DHT22;22958;51.232;6.826;2023-04-03T10:35:56;8.40;97.10
37050;DHT22;22958;51.232;6.826;2023-04-03T10:41:35;8.70;96.10
37050;DHT22;22958;51.232;6.826;2023-04-03T10:46:47;8.80;95.70
37050;DHT22;22958;51.232;6.826;2023-04-03T10:52:20;8.90;95.10
37050;DHT22;22958;51.232;6.826;2023-04-03T10:57:23;9.00;94.10
37050;DHT22;22958;51.232;6.826;2023-04-03T10:59:55;9.20;94.60
37050;DHT22;22958;51.232;6.826;2023-04-03T11:04:51;10.60;92.00
37050;DHT22;22958;51.232;6.826;2023-04-03T11:07:22;11.80;91.90
37050;DHT22;22958;51.232;6.826;2023-04-03T11:09:53;13.00;88.20
37050;DHT22;22958;51.232;6.826;2023-04-03T11:14:55;14.70;74.60
37050;DHT22;22958;51.232;6.826;2023-04-03T11:17:30;15.20;66.60
37050;DHT22;22958;51.232;6.826;2023-04-03T11:20:20;14.90;60.90
37050;DHT22;22958;51.232;6.826;2023-04-03T11:23:06;15.50;61.90
37050;DHT22;22958;51.232;6.826;2023-04-03T11:25:35;16.50;57.80
37050;DHT22;22958;51.232;6.826;2023-04-03T11:28:04;16.90;54.20
37050;DHT22;22958;51.232;6.826;2023-04-03T11:30:36;16.30;53.10
37050;DHT22;22958;51.232;6.826;2023-04-03T11:33:15;16.40;55.10
37050;DHT22;22958;51.232;6.826;2023-04-03T11:35:45;17.40;53.30
37050;DHT22;22958;51.232;6.826;2023-04-03T11:38:31;17.60;50.50
37050;DHT22;22958;51.232;6.826;2023-04-03T11:41:00;16.20;49.70
37050;DHT22;22958;51.232;6.826;2023-04-03T11:43:27;16.20;52.10
37050;DHT22;22958;51.232;6.826;2023-04-03T11:46:04;19.20;48.70
37050;DHT22;22958;51.232;6.826;2023-04-03T11:53:53;17.90;45.00
37050;DHT22;22958;51.232;6.826;2023-04-03T12:01:47;19.70;43.00
37050;DHT22;22958;51.232;6.826;2023-04-03T12:04:15;19.50;42.60
37050;DHT22;22958;51.232;6.826;2023-04-03T12:06:47;20.20;42.90
37050;DHT22;22958;51.232;6.826;2023-04-03T12:09:26;19.40;44.60
37050;DHT22;22958;51.232;6.826;2023-04-03T12:11:53;20.80;44.10
37050;DHT22;22958;51.232;6.826;2023-04-03T12:14:23;21.30;45.10
37050;DHT22;22958;51.232;6.826;2023-04-03T12:16:50;22.60;42.30
37050;DHT22;22958;51.232;6.826;2023-04-03T12:26:47;22.90;42.70
37050;DHT22;22958;51.232;6.826;2023-04-03T12:29:21;21.50;41.60
37050;DHT22;22958;51.232;6.826;2023-04-03T12:48:53;19.60;42.30
37050;DHT22;22958;51.232;6.826;2023-04-03T12:53:56;21.10;40.60
37050;DHT22;22958;51.232;6.826;2023-04-03T12:56:28;21.30;39.70
37050;DHT22;22958;51.232;6.826;2023-04-03T12:58:55;21.20;40.50
37050;DHT22;22958;51.232;6.826;2023-04-03T13:01:25;22.80;39.70
37050;DHT22;22958;51.232;6.826;2023-04-03T13:03:57;21.20;39.20
37050;DHT22;22958;51.232;6.826;2023-04-03T13:06:29;22.30;40.00
37050;DHT22;22958;51.232;6.826;2023-04-03T13:08:58;23.90;38.40
37050;DHT22;22958;51.232;6.826;2023-04-03T13:11:35;24.00;38.10
37050;DHT22;22958;51.232;6.826;2023-04-03T13:14:05;24.10;38.30
37050;DHT22;22958;51.232;6.826;2023-04-03T13:16:32;20.70;39.40
37050;DHT22;22958;51.232;6.826;2023-04-03T13:18:58;21.20;40.30
37050;DHT22;22958;51.232;6.826;2023-04-03T13:21:28;21.70;39.50
37050;DHT22;22958;51.232;6.826;2023-04-03T13:24:00;23.60;37.60
37050;DHT22;22958;51.232;6.826;2023-04-03T13:26:29;23.00;38.40
37050;DHT22;22958;51.232;6.826;2023-04-03T13:29:00;23.40;38.60
37050;DHT22;22958;51.232;6.826;2023-04-03T13:31:33;22.50;38.70
37050;DHT22;22958;51.232;6.826;2023-04-03T13:34:19;23.70;38.90
37050;DHT22;22958;51.232;6.826;2023-04-03T13:36:59;22.50;39.00
37050;DHT22;22958;51.232;6.826;2023-04-03T13:39:30;23.30;38.70
37050;DHT22;22958;51.232;6.826;2023-04-03T13:44:41;21.70;38.20
37050;DHT22;22958;51.232;6.826;2023-04-03T13:49:38;22.10;38.90
37050;DHT22;22958;51.232;6.826;2023-04-03T13:52:29;23.20;38.70
37050;DHT22;22958;51.232;6.826;2023-04-03T13:54:58;22.10;36.70
37050;DHT22;22958;51.232;6.826;2023-04-03T13:57:24;22.00;37.60
37050;DHT22;22958;51.232;6.826;2023-04-03T13:59:50;22.80;38.80
37050;DHT22;22958;51.232;6.826;2023-04-03T14:02:33;22.80;37.80
37050;DHT22;22958;51.232;6.826;2023-04-03T14:05:00;23.20;37.80
37050;DHT22;22958;51.232;6.826;2023-04-03T14:07:28;23.80;37.70
37050;DHT22;22958;51.232;6.826;2023-04-03T14:09:55;24.20;36.80
37050;DHT22;22958;51.232;6.826;2023-04-03T14:12:34;24.60;35.90
37050;DHT22;22958;51.232;6.826;2023-04-03T14:15:04;22.70;36.00
37050;DHT22;22958;51.232;6.826;2023-04-03T14:17:30;22.70;37.00
37050;DHT22;22958;51.232;6.826;2023-04-03T14:19:58;23.20;36.20
37050;DHT22;22958;51.232;6.826;2023-04-03T14:22:30;24.40;35.60
37050;DHT22;22958;51.232;6.826;2023-04-03T14:24:56;23.30;35.70
37050;DHT22;22958;51.232;6.826;2023-04-03T14:27:28;21.80;37.30
37050;DHT22;22958;51.232;6.826;2023-04-03T14:29:56;21.90;37.30
37050;DHT22;22958;51.232;6.826;2023-04-03T14:32:23;21.60;38.90
37050;DHT22;22958;51.232;6.826;2023-04-03T14:34:50;21.00;38.00
37050;DHT22;22958;51.232;6.826;2023-04-03T14:37:20;21.60;37.70
37050;DHT22;22958;51.232;6.826;2023-04-03T14:39:47;20.80;38.40
37050;DHT22;22958;51.232;6.826;2023-04-03T14:42:14;20.30;39.20
37050;DHT22;22958;51.232;6.826;2023-04-03T14:44:40;20.00;39.70
37050;DHT22;22958;51.232;6.826;2023-04-03T14:47:12;19.90;40.00
37050;DHT22;22958;51.232;6.826;2023-04-03T14:49:39;19.90;40.70
37050;DHT22;22958;51.232;6.826;2023-04-03T14:52:05;20.10;40.40
37050;DHT22;22958;51.232;6.826;2023-04-03T14:54:31;20.60;40.10
37050;DHT22;22958;51.232;6.826;2023-04-03T14:56:58;19.80;41.20
37050;DHT22;22958;51.232;6.826;2023-04-03T14:59:25;18.60;41.00
37050;DHT22;22958;51.232;6.826;2023-04-03T15:01:51;18.00;41.30
37050;DHT22;22958;51.232;6.826;2023-04-03T15:04:19;17.80;43.20
37050;DHT22;22958;51.232;6.826;2023-04-03T15:06:46;17.50;44.10
37050;DHT22;22958;51.232;6.826;2023-04-03T15:09:24;16.90;44.10
37050;DHT22;22958;51.232;6.826;2023-04-03T15:11:51;16.90;44.50
37050;DHT22;22958;51.232;6.826;2023-04-03T15:14:17;16.60;44.60
37050;DHT22;22958;51.232;6.826;2023-04-03T15:16:43;16.40;45.30
37050;DHT22;22958;51.232;6.826;2023-04-03T15:19:08;16.60;45.60
37050;DHT22;22958;51.232;6.826;2023-04-03T15:21:34;17.00;45.00
37050;DHT22;22958;51.232;6.826;2023-04-03T15:24:00;17.20;45.50
37050;DHT22;22958;51.232;6.826;2023-04-03T15:26:26;17.40;45.80
37050;DHT22;22958;51.232;6.826;2023-04-03T15:28:51;17.40;45.00
37050;DHT22;22958;51.232;6.826;2023-04-03T15:31:17;16.90;44.80
37050;DHT22;22958;51.232;6.826;2023-04-03T15:33:42;15.80;45.40
37050;DHT22;22958;51.232;6.826;2023-04-03T15:36:08;15.30;47.80
37050;DHT22;22958;51.232;6.826;2023-04-03T15:38:34;14.70;48.30
37050;DHT22;22958;51.232;6.826;2023-04-03T15:41:00;13.70;50.50
37050;DHT22;22958;51.232;6.826;2023-04-03T15:43:26;13.40;51.10
37050;DHT22;22958;51.232;6.826;2023-04-03T15:45:56;12.80;52.20
37050;DHT22;22958;51.232;6.826;2023-04-03T15:48:23;12.40;53.10
37050;DHT22;22958;51.232;6.826;2023-04-03T15:50:48;12.00;54.50
37050;DHT22;22958;51.232;6.826;2023-04-03T15:53:14;11.80;55.70
37050;DHT22;22958;51.232;6.826;2023-04-03T15:55:39;11.80;56.50
37050;DHT22;22958;51.232;6.826;2023-04-03T15:58:06;11.50;57.10
37050;DHT22;22958;51.232;6.826;2023-04-03T16:00:32;11.30;57.20
37050;DHT22;22958;51.232;6.826;2023-04-03T16:03:01;10.90;57.60
37050;DHT22;22958;51.232;6.826;2023-04-03T16:05:29;10.50;58.10
37050;DHT22;22958;51.232;6.826;2023-04-03T16:07:55;10.30;58.70
37050;DHT22;22958;51.232;6.826;2023-04-03T16:10:20;10.20;59.80
37050;DHT22;22958;51.232;6.826;2023-04-03T16:12:46;10.20;60.50
37050;DHT22;22958;51.232;6.826;2023-04-03T16:15:12;10.40;60.40
37050;DHT22;22958;51.232;6.826;2023-04-03T16:17:39;10.30;60.20
37050;DHT22;22958;51.232;6.826;2023-04-03T16:20:07;10.10;60.70
37050;DHT22;22958;51.232;6.826;2023-04-03T16:22:33;9.90;61.60
37050;DHT22;22958;51.232;6.826;2023-04-03T16:24:59;9.80;61.80
37050;DHT22;22958;51.232;6.826;2023-04-03T16:27:26;9.80;62.00
37050;DHT22;22958;51.232;6.826;2023-04-03T16:29:56;9.80;61.80
37050;DHT22;22958;51.232;6.826;2023-04-03T16:32:26;9.80;62.80
37050;DHT22;22958;51.232;6.826;2023-04-03T16:34:53;9.80;62.70
37050;DHT22;22958;51.232;6.826;2023-04-03T16:37:18;9.70;63.30
37050;DHT22;22958;51.232;6.826;2023-04-03T16:39:44;9.30;64.20
37050;DHT22;22958;51.232;6.826;2023-04-03T16:42:11;9.40;65.70
37050;DHT22;22958;51.232;6.826;2023-04-03T16:44:37;9.40;65.20
37050;DHT22;22958;51.232;6.826;2023-04-03T16:47:03;9.50;65.70
37050;DHT22;22958;51.232;6.826;2023-04-03T16:49:29;9.50;65.80
37050;DHT22;22958;51.232;6.826;2023-04-03T16:52:04;9.40;65.50
37050;DHT22;22958;51.232;6.826;2023-04-03T16:54:30;9.20;66.80
37050;DHT22;22958;51.232;6.826;2023-04-03T16:56:56;9.20;66.50
37050;DHT22;22958;51.232;6.826;2023-04-03T16:59:22;9.20;66.20
37050;DHT22;22958;51.232;6.826;2023-04-03T17:01:48;9.20;65.80
37050;DHT22;22958;51.232;6.826;2023-04-03T17:04:13;9.10;66.60
37050;DHT22;22958;51.232;6.826;2023-04-03T17:06:39;9.00;67.30
37050;DHT22;22958;51.232;6.826;2023-04-03T17:09:06;9.00;68.40
37050;DHT22;22958;51.232;6.826;2023-04-03T17:11:32;8.90;67.20
37050;DHT22;22958;51.232;6.826;2023-04-03T17:13:58;8.80;67.10
37050;DHT22;22958;51.232;6.826;2023-04-03T17:16:24;8.80;67.50
37050;DHT22;22958;51.232;6.826;2023-04-03T17:18:51;8.70;67.20
37050;DHT22;22958;51.232;6.826;2023-04-03T17:21:17;8.60;67.60
37050;DHT22;22958;51.232;6.826;2023-04-03T17:23:46;8.60;67.50
37050;DHT22;22958;51.232;6.826;2023-04-03T17:26:13;8.50;68.10